sensor_id;sensor_type;location;lat;lon;timestamp;pressure;altitude;pressure_sealevel;temperature;humidity
22964;BME280;11648;49.306;6.934;2023-12-20T00:02:15;98529.09;;;9.97;71.73
22964;BME280;11648;49.306;6.934;2023-12-20T00:04:42;98529.94;;;9.99;71.82
22964;BME280;11648;49.306;6.934;2023-12-20T00:07:09;98521.09;;;10.12;71.52
22964;BME280;11648;49.306;6.934;2023-12-20T00:09:36;98534.16;;;10.24;71.21
22964;BME280;11648;49.306;6.934;2023-12-20T00:12:03;98540.34;;;10.20;71.21
22964;BME280;11648;49.306;6.934;2023-12-20T00:14:30;98533.38;;;10.16;71.35
22964;BME280;11648;49.306;6.934;2023-12-20T00:16:57;98533.41;;;10.05;71.82
22964;BME280;11648;49.306;6.934;2023-12-20T00:19:23;98537.78;;;10.08;71.51
22964;BME280;11648;49.306;6.934;2023-12-20T00:21:50;98536.00;;;10.10;71.86
22964;BME280;11648;49.306;6.934;2023-12-20T00:24:17;98526.34;;;10.12;71.80
22964;BME280;11648;49.306;6.934;2023-12-20T00:26:44;98524.44;;;10.33;71.39
22964;BME280;11648;49.306;6.934;2023-12-20T00:29:11;98530.69;;;10.22;71.93
22964;BME280;11648;49.306;6.934;2023-12-20T00:31:38;98522.78;;;10.20;71.79
22964;BME280;11648;49.306;6.934;2023-12-20T00:34:05;98520.06;;;10.34;71.65
22964;BME280;11648;49.306;6.934;2023-12-20T00:36:32;98520.97;;;10.30;71.66
22964;BME280;11648;49.306;6.934;2023-12-20T00:38:59;98519.25;;;10.26;71.71
22964;BME280;11648;49.306;6.934;2023-12-20T00:41:25;98512.13;;;10.35;72.09
22964;BME280;11648;49.306;6.934;2023-12-20T00:43:52;98509.44;;;10.45;71.26
22964;BME280;11648;49.306;6.934;2023-12-20T00:46:19;98512.25;;;10.22;72.37
22964;BME280;11648;49.306;6.934;2023-12-20T00:48:46;98513.09;;;10.27;72.43
22964;BME280;11648;49.306;6.934;2023-12-20T00:51:13;98514.81;;;10.28;72.28
22964;BME280;11648;49.306;6.934;2023-12-20T00:53:40;98506.84;;;10.40;72.26
22964;BME280;11648;49.306;6.934;2023-12-20T00:56:07;98521.78;;;10.38;72.05
22964;BME280;11648;49.306;6.934;2023-12-20T00:58:33;98512.94;;;10.42;72.16
22964;BME280;11648;49.306;6.934;2023-12-20T01:01:00;98509.31;;;10.55;71.53
22964;BME280;11648;49.306;6.934;2023-12-20T01:03:27;98504.97;;;10.51;71.64
22964;BME280;11648;49.306;6.934;2023-12-20T01:05:54;98495.41;;;10.43;71.86
22964;BME280;11648;49.306;6.934;2023-12-20T01:08:21;98502.34;;;10.50;71.76
22964;BME280;11648;49.306;6.934;2023-12-20T01:10:48;98499.97;;;10.21;72.69
22964;BME280;11648;49.306;6.934;2023-12-20T01:13:15;98492.72;;;10.47;71.79
22964;BME280;11648;49.306;6.934;2023-12-20T01:15:42;98498.00;;;10.47;71.77
22964;BME280;11648;49.306;6.934;2023-12-20T01:18:08;98504.59;;;10.86;71.17
22964;BME280;11648;49.306;6.934;2023-12-20T01:20:35;98500.91;;;11.02;70.47
22964;BME280;11648;49.306;6.934;2023-12-20T01:23:03;98510.59;;;10.99;71.00
22964;BME280;11648;49.306;6.934;2023-12-20T01:25:30;98509.69;;;11.01;70.72
22964;BME280;11648;49.306;6.934;2023-12-20T01:27:56;98496.72;;;10.81;70.92
22964;BME280;11648;49.306;6.934;2023-12-20T01:30:23;98498.47;;;10.84;71.15
22964;BME280;11648;49.306;6.934;2023-12-20T01:32:51;98494.78;;;10.99;70.57
22964;BME280;11648;49.306;6.934;2023-12-20T01:35:18;98494.00;;;10.90;71.07
22964;BME280;11648;49.306;6.934;2023-12-20T01:37:45;98488.59;;;11.01;70.74
22964;BME280;11648;49.306;6.934;2023-12-20T01:40:13;98504.34;;;11.07;70.86
22964;BME280;11648;49.306;6.934;2023-12-20T01:42:39;98499.94;;;11.08;70.66
22964;BME280;11648;49.306;6.934;2023-12-20T01:45:07;98506.16;;;11.02;71.22
22964;BME280;11648;49.306;6.934;2023-12-20T01:47:33;98505.50;;;10.82;71.85
22964;BME280;11648;49.306;6.934;2023-12-20T01:50:01;98510.59;;;10.96;71.42
22964;BME280;11648;49.306;6.934;2023-12-20T01:52:30;98508.72;;;11.10;71.04
22964;BME280;11648;49.306;6.934;2023-12-20T01:54:58;98505.16;;;11.12;70.46
22964;BME280;11648;49.306;6.934;2023-12-20T01:57:30;98509.41;;;11.22;70.41
22964;BME280;11648;49.306;6.934;2023-12-20T01:59:57;98533.00;;;11.33;70.13
22964;BME280;11648;49.306;6.934;2023-12-20T02:02:26;98517.13;;;11.36;70.53
22964;BME280;11648;49.306;6.934;2023-12-20T02:04:54;98515.84;;;11.00;71.69
22964;BME280;11648;49.306;6.934;2023-12-20T02:07:22;98515.88;;;10.99;72.05
22964;BME280;11648;49.306;6.934;2023-12-20T02:09:50;98523.94;;;10.83;72.22
22964;BME280;11648;49.306;6.934;2023-12-20T02:12:16;98523.06;;;10.81;72.80
22964;BME280;11648;49.306;6.934;2023-12-20T02:14:43;98520.34;;;10.90;72.49
22964;BME280;11648;49.306;6.934;2023-12-20T02:17:10;98508.53;;;11.23;71.55
22964;BME280;11648;49.306;6.934;2023-12-20T02:19:37;98511.06;;;11.31;71.39
22964;BME280;11648;49.306;6.934;2023-12-20T02:22:06;98517.47;;;11.10;72.00
22964;BME280;11648;49.306;6.934;2023-12-20T02:24:33;98500.50;;;11.32;71.74
22964;BME280;11648;49.306;6.934;2023-12-20T02:27:00;98496.91;;;11.38;71.54
22964;BME280;11648;49.306;6.934;2023-12-20T02:29:27;98496.81;;;11.46;71.18
22964;BME280;11648;49.306;6.934;2023-12-20T02:31:54;98503.59;;;11.63;70.55
22964;BME280;11648;49.306;6.934;2023-12-20T02:34:20;98500.31;;;11.46;71.25
22964;BME280;11648;49.306;6.934;2023-12-20T02:36:47;98501.72;;;11.74;70.39
22964;BME280;11648;49.306;6.934;2023-12-20T02:39:14;98513.22;;;11.66;70.52
22964;BME280;11648;49.306;6.934;2023-12-20T02:41:41;98513.91;;;11.80;70.20
22964;BME280;11648;49.306;6.934;2023-12-20T02:44:08;98506.81;;;11.85;70.01
22964;BME280;11648;49.306;6.934;2023-12-20T02:46:35;98508.50;;;11.89;69.71
22964;BME280;11648;49.306;6.934;2023-12-20T02:49:01;98507.81;;;11.78;70.19
22964;BME280;11648;49.306;6.934;2023-12-20T02:51:28;98521.66;;;11.91;69.79
22964;BME280;11648;49.306;6.934;2023-12-20T02:53:55;98516.34;;;11.94;69.82
22964;BME280;11648;49.306;6.934;2023-12-20T02:56:22;98528.88;;;11.79;69.95
22964;BME280;11648;49.306;6.934;2023-12-20T02:58:48;98519.97;;;11.88;69.69
22964;BME280;11648;49.306;6.934;2023-12-20T03:01:15;98516.34;;;11.94;69.86
22964;BME280;11648;49.306;6.934;2023-12-20T03:03:42;98513.53;;;12.06;69.34
22964;BME280;11648;49.306;6.934;2023-12-20T03:06:09;98522.59;;;11.88;70.09
22964;BME280;11648;49.306;6.934;2023-12-20T03:08:36;98524.91;;;12.09;69.52
22964;BME280;11648;49.306;6.934;2023-12-20T03:11:03;98532.22;;;11.92;70.10
22964;BME280;11648;49.306;6.934;2023-12-20T03:13:30;98534.97;;;11.84;70.63
22964;BME280;11648;49.306;6.934;2023-12-20T03:15:57;98532.91;;;12.03;69.88
22964;BME280;11648;49.306;6.934;2023-12-20T03:18:24;98528.66;;;11.93;70.75
22964;BME280;11648;49.306;6.934;2023-12-20T03:20:51;98535.69;;;11.93;70.61
22964;BME280;11648;49.306;6.934;2023-12-20T03:23:18;98545.41;;;11.89;70.74
22964;BME280;11648;49.306;6.934;2023-12-20T03:25:45;98543.94;;;11.68;71.31
22964;BME280;11648;49.306;6.934;2023-12-20T03:28:14;98550.00;;;11.78;70.95
22964;BME280;11648;49.306;6.934;2023-12-20T03:30:41;98552.72;;;11.72;71.42
22964;BME280;11648;49.306;6.934;2023-12-20T03:33:08;98551.56;;;11.91;70.88
22964;BME280;11648;49.306;6.934;2023-12-20T03:35:35;98552.66;;;11.78;71.24
22964;BME280;11648;49.306;6.934;2023-12-20T03:38:02;98556.78;;;11.94;71.03
22964;BME280;11648;49.306;6.934;2023-12-20T03:40:29;98556.78;;;11.96;70.57
22964;BME280;11648;49.306;6.934;2023-12-20T03:42:55;98558.81;;;11.75;71.82
22964;BME280;11648;49.306;6.934;2023-12-20T03:45:23;98566.97;;;11.56;72.04
22964;BME280;11648;49.306;6.934;2023-12-20T03:47:50;98563.22;;;11.75;71.70
22964;BME280;11648;49.306;6.934;2023-12-20T03:50:25;98567.53;;;11.79;71.58
22964;BME280;11648;49.306;6.934;2023-12-20T03:52:52;98567.03;;;11.53;72.31
22964;BME280;11648;49.306;6.934;2023-12-20T03:55:19;98559.72;;;11.73;72.04
22964;BME280;11648;49.306;6.934;2023-12-20T03:57:46;98573.81;;;11.70;71.98
22964;BME280;11648;49.306;6.934;2023-12-20T04:00:13;98565.84;;;11.75;71.53
22964;BME280;11648;49.306;6.934;2023-12-20T04:02:42;98566.78;;;11.68;71.66
22964;BME280;11648;49.306;6.934;2023-12-20T04:05:09;98571.78;;;11.89;70.82
22964;BME280;11648;49.306;6.934;2023-12-20T04:07:36;98580.53;;;11.93;70.62
22964;BME280;11648;49.306;6.934;2023-12-20T04:10:04;98577.94;;;11.89;70.40
22964;BME280;11648;49.306;6.934;2023-12-20T04:12:31;98584.09;;;11.90;70.54
22964;BME280;11648;49.306;6.934;2023-12-20T04:14:58;98578.06;;;11.82;70.38
22964;BME280;11648;49.306;6.934;2023-12-20T04:17:25;98585.13;;;11.78;70.07
22964;BME280;11648;49.306;6.934;2023-12-20T04:19:52;98587.81;;;11.77;70.50
22964;BME280;11648;49.306;6.934;2023-12-20T04:22:19;98588.50;;;11.89;69.96
22964;BME280;11648;49.306;6.934;2023-12-20T04:24:46;98589.31;;;11.93;69.73
22964;BME280;11648;49.306;6.934;2023-12-20T04:27:13;98598.38;;;11.77;69.42
22964;BME280;11648;49.306;6.934;2023-12-20T04:29:40;98602.13;;;11.55;69.40
22964;BME280;11648;49.306;6.934;2023-12-20T04:32:06;98608.13;;;11.67;68.87
22964;BME280;11648;49.306;6.934;2023-12-20T04:34:33;98613.38;;;11.69;69.28
22964;BME280;11648;49.306;6.934;2023-12-20T04:37:00;98621.31;;;11.66;68.73
22964;BME280;11648;49.306;6.934;2023-12-20T04:39:28;98619.91;;;11.37;69.28
22964;BME280;11648;49.306;6.934;2023-12-20T04:41:55;98623.44;;;11.36;68.52
22964;BME280;11648;49.306;6.934;2023-12-20T04:44:22;98624.41;;;11.31;67.59
22964;BME280;11648;49.306;6.934;2023-12-20T04:46:50;98620.97;;;11.23;66.89
22964;BME280;11648;49.306;6.934;2023-12-20T04:49:17;98614.09;;;11.10;66.95
22964;BME280;11648;49.306;6.934;2023-12-20T04:51:43;98622.00;;;11.07;66.16
22964;BME280;11648;49.306;6.934;2023-12-20T04:54:10;98626.44;;;11.06;65.46
22964;BME280;11648;49.306;6.934;2023-12-20T04:56:38;98629.91;;;11.08;64.97
22964;BME280;11648;49.306;6.934;2023-12-20T04:59:04;98637.16;;;10.83;65.90
22964;BME280;11648;49.306;6.934;2023-12-20T05:01:32;98634.69;;;10.64;66.02
22964;BME280;11648;49.306;6.934;2023-12-20T05:03:59;98638.34;;;10.46;66.30
22964;BME280;11648;49.306;6.934;2023-12-20T05:06:26;98646.28;;;10.43;66.61
22964;BME280;11648;49.306;6.934;2023-12-20T05:08:53;98647.97;;;10.50;65.91
22964;BME280;11648;49.306;6.934;2023-12-20T05:11:19;98649.94;;;10.21;67.01
22964;BME280;11648;49.306;6.934;2023-12-20T05:13:46;98649.03;;;10.26;66.81
22964;BME280;11648;49.306;6.934;2023-12-20T05:16:16;98646.13;;;10.61;65.51
22964;BME280;11648;49.306;6.934;2023-12-20T05:18:48;98640.72;;;10.81;64.97
22964;BME280;11648;49.306;6.934;2023-12-20T05:21:17;98640.03;;;10.58;65.84
22964;BME280;11648;49.306;6.934;2023-12-20T05:23:43;98645.97;;;10.81;64.65
22964;BME280;11648;49.306;6.934;2023-12-20T05:26:10;98659.97;;;10.86;64.38
22964;BME280;11648;49.306;6.934;2023-12-20T05:28:37;98659.09;;;10.85;64.12
22964;BME280;11648;49.306;6.934;2023-12-20T05:31:04;98664.22;;;11.02;63.67
22964;BME280;11648;49.306;6.934;2023-12-20T05:33:31;98666.00;;;10.99;63.41
22964;BME280;11648;49.306;6.934;2023-12-20T05:35:58;98667.81;;;10.94;63.38
22964;BME280;11648;49.306;6.934;2023-12-20T05:38:24;98657.06;;;11.15;62.59
22964;BME280;11648;49.306;6.934;2023-12-20T05:40:51;98655.44;;;11.02;62.59
22964;BME280;11648;49.306;6.934;2023-12-20T05:43:18;98665.94;;;11.03;62.33
22964;BME280;11648;49.306;6.934;2023-12-20T05:45:46;98665.03;;;11.09;62.41
22964;BME280;11648;49.306;6.934;2023-12-20T05:48:13;98670.38;;;11.01;62.40
22964;BME280;11648;49.306;6.934;2023-12-20T05:50:40;98669.50;;;11.02;61.97
22964;BME280;11648;49.306;6.934;2023-12-20T05:53:07;98669.63;;;10.85;62.31
22964;BME280;11648;49.306;6.934;2023-12-20T05:55:34;98665.31;;;10.75;62.27
22964;BME280;11648;49.306;6.934;2023-12-20T05:58:01;98675.00;;;10.73;62.39
22964;BME280;11648;49.306;6.934;2023-12-20T06:00:28;98683.94;;;10.56;62.44
22964;BME280;11648;49.306;6.934;2023-12-20T06:02:55;98689.28;;;10.40;63.29
22964;BME280;11648;49.306;6.934;2023-12-20T06:05:21;98692.00;;;10.27;63.93
22964;BME280;11648;49.306;6.934;2023-12-20T06:07:48;98699.97;;;10.12;64.44
22964;BME280;11648;49.306;6.934;2023-12-20T06:10:17;98701.69;;;10.17;64.24
22964;BME280;11648;49.306;6.934;2023-12-20T06:12:44;98700.84;;;10.15;64.19
22964;BME280;11648;49.306;6.934;2023-12-20T06:15:14;98702.50;;;10.28;64.10
22964;BME280;11648;49.306;6.934;2023-12-20T06:17:41;98712.19;;;10.20;64.84
22964;BME280;11648;49.306;6.934;2023-12-20T06:20:08;98713.97;;;10.20;64.73
22964;BME280;11648;49.306;6.934;2023-12-20T06:22:36;98711.22;;;10.35;64.25
22964;BME280;11648;49.306;6.934;2023-12-20T06:25:04;98705.97;;;10.38;64.24
22964;BME280;11648;49.306;6.934;2023-12-20T06:27:31;98715.66;;;10.31;63.97
22964;BME280;11648;49.306;6.934;2023-12-20T06:29:59;98713.97;;;10.21;64.50
22964;BME280;11648;49.306;6.934;2023-12-20T06:32:26;98718.22;;;10.39;64.04
22964;BME280;11648;49.306;6.934;2023-12-20T06:34:53;98720.00;;;10.35;64.17
22964;BME280;11648;49.306;6.934;2023-12-20T06:37:20;98720.03;;;10.34;64.57
22964;BME280;11648;49.306;6.934;2023-12-20T06:39:46;98723.47;;;10.44;64.33
22964;BME280;11648;49.306;6.934;2023-12-20T06:42:13;98718.34;;;10.22;64.34
22964;BME280;11648;49.306;6.934;2023-12-20T06:44:40;98718.25;;;10.36;64.70
22964;BME280;11648;49.306;6.934;2023-12-20T06:47:07;98713.81;;;10.43;64.12
22964;BME280;11648;49.306;6.934;2023-12-20T06:49:34;98715.56;;;10.47;63.88
22964;BME280;11648;49.306;6.934;2023-12-20T06:52:01;98708.53;;;10.49;63.90
22964;BME280;11648;49.306;6.934;2023-12-20T06:54:28;98715.63;;;10.37;64.27
22964;BME280;11648;49.306;6.934;2023-12-20T06:56:55;98716.47;;;10.41;64.70
22964;BME280;11648;49.306;6.934;2023-12-20T06:59:22;98708.47;;;10.59;63.76
22964;BME280;11648;49.306;6.934;2023-12-20T07:01:49;98708.59;;;10.39;64.96
22964;BME280;11648;49.306;6.934;2023-12-20T07:04:16;98702.34;;;10.54;64.31
22964;BME280;11648;49.306;6.934;2023-12-20T07:06:48;98704.03;;;10.64;64.12
22964;BME280;11648;49.306;6.934;2023-12-20T07:09:18;98713.81;;;10.46;64.41
22964;BME280;11648;49.306;6.934;2023-12-20T07:11:45;98722.63;;;10.38;65.16
22964;BME280;11648;49.306;6.934;2023-12-20T07:14:12;98723.44;;;10.50;64.64
22964;BME280;11648;49.306;6.934;2023-12-20T07:16:38;98711.97;;;10.57;64.81
22964;BME280;11648;49.306;6.934;2023-12-20T07:19:06;98722.63;;;10.38;65.33
22964;BME280;11648;49.306;6.934;2023-12-20T07:21:33;98730.53;;;10.35;65.34
22964;BME280;11648;49.306;6.934;2023-12-20T07:23:59;98732.31;;;10.38;65.45
22964;BME280;11648;49.306;6.934;2023-12-20T07:26:26;98732.38;;;10.23;65.93
22964;BME280;11648;49.306;6.934;2023-12-20T07:28:53;98735.84;;;10.28;66.01
22964;BME280;11648;49.306;6.934;2023-12-20T07:31:20;98736.81;;;10.00;67.55
22964;BME280;11648;49.306;6.934;2023-12-20T07:33:47;98742.88;;;10.26;66.77
22964;BME280;11648;49.306;6.934;2023-12-20T07:36:14;98741.25;;;9.90;67.67
22964;BME280;11648;49.306;6.934;2023-12-20T07:38:41;98750.81;;;10.06;67.78
22964;BME280;11648;49.306;6.934;2023-12-20T07:41:11;98754.41;;;9.85;68.28
22964;BME280;11648;49.306;6.934;2023-12-20T07:43:38;98753.31;;;10.41;67.19
22964;BME280;11648;49.306;6.934;2023-12-20T07:46:06;98756.75;;;10.49;66.36
22964;BME280;11648;49.306;6.934;2023-12-20T07:48:36;98756.75;;;10.55;66.33
22964;BME280;11648;49.306;6.934;2023-12-20T07:51:04;98770.84;;;10.45;66.44
22964;BME280;11648;49.306;6.934;2023-12-20T07:53:32;98771.00;;;10.15;67.45
22964;BME280;11648;49.306;6.934;2023-12-20T07:55:59;98775.41;;;10.02;67.96
22964;BME280;11648;49.306;6.934;2023-12-20T07:58:26;98769.28;;;9.96;67.77
22964;BME280;11648;49.306;6.934;2023-12-20T08:01:11;98772.72;;;10.11;67.92
22964;BME280;11648;49.306;6.934;2023-12-20T08:03:38;98788.53;;;10.07;67.69
22964;BME280;11648;49.306;6.934;2023-12-20T08:06:05;98795.53;;;10.20;68.02
22964;BME280;11648;49.306;6.934;2023-12-20T08:08:32;98792.84;;;10.27;67.41
22964;BME280;11648;49.306;6.934;2023-12-20T08:10:59;98793.75;;;10.25;67.66
22964;BME280;11648;49.306;6.934;2023-12-20T08:13:26;98795.47;;;10.27;67.53
22964;BME280;11648;49.306;6.934;2023-12-20T08:15:53;98798.09;;;10.33;67.41
22964;BME280;11648;49.306;6.934;2023-12-20T08:18:22;98794.53;;;10.45;67.09
22964;BME280;11648;49.306;6.934;2023-12-20T08:20:50;98789.97;;;10.71;66.02
22964;BME280;11648;49.306;6.934;2023-12-20T08:23:19;98804.88;;;10.80;66.18
22964;BME280;11648;49.306;6.934;2023-12-20T08:25:50;98794.41;;;10.66;66.52
22964;BME280;11648;49.306;6.934;2023-12-20T08:28:17;98780.41;;;10.61;66.04
22964;BME280;11648;49.306;6.934;2023-12-20T08:30:44;98784.75;;;10.70;66.01
22964;BME280;11648;49.306;6.934;2023-12-20T08:33:11;98786.47;;;10.74;65.91
22964;BME280;11648;49.306;6.934;2023-12-20T08:35:40;98787.34;;;10.77;65.99
22964;BME280;11648;49.306;6.934;2023-12-20T08:38:07;98791.63;;;10.90;65.48
22964;BME280;11648;49.306;6.934;2023-12-20T08:40:34;98786.38;;;10.87;65.24
22964;BME280;11648;49.306;6.934;2023-12-20T08:43:01;98786.28;;;10.97;65.35
22964;BME280;11648;49.306;6.934;2023-12-20T08:45:28;98786.28;;;11.03;65.02
22964;BME280;11648;49.306;6.934;2023-12-20T08:47:55;98788.97;;;10.95;65.31
22964;BME280;11648;49.306;6.934;2023-12-20T08:50:25;98784.53;;;10.99;65.33
22964;BME280;11648;49.306;6.934;2023-12-20T08:52:52;98776.44;;;11.23;64.52
22964;BME280;11648;49.306;6.934;2023-12-20T08:55:19;98780.84;;;11.21;64.48
22964;BME280;11648;49.306;6.934;2023-12-20T08:57:46;98775.38;;;11.45;63.72
22964;BME280;11648;49.306;6.934;2023-12-20T09:00:14;98786.03;;;11.30;64.24
22964;BME280;11648;49.306;6.934;2023-12-20T09:02:41;98771.19;;;11.20;64.61
22964;BME280;11648;49.306;6.934;2023-12-20T09:05:08;98790.75;;;10.90;65.64
22964;BME280;11648;49.306;6.934;2023-12-20T09:07:35;98789.44;;;11.43;64.35
22964;BME280;11648;49.306;6.934;2023-12-20T09:10:03;98793.13;;;11.22;64.55
22964;BME280;11648;49.306;6.934;2023-12-20T09:12:30;98794.69;;;11.46;64.18
22964;BME280;11648;49.306;6.934;2023-12-20T09:14:57;98798.47;;;11.14;64.71
22964;BME280;11648;49.306;6.934;2023-12-20T09:17:24;98793.34;;;10.95;65.39
22964;BME280;11648;49.306;6.934;2023-12-20T09:19:51;98792.38;;;11.09;65.29
22964;BME280;11648;49.306;6.934;2023-12-20T09:22:20;98795.84;;;11.13;65.27
22964;BME280;11648;49.306;6.934;2023-12-20T09:24:48;98791.47;;;11.13;65.06
22964;BME280;11648;49.306;6.934;2023-12-20T09:27:14;98793.19;;;11.16;65.34
22964;BME280;11648;49.306;6.934;2023-12-20T09:29:41;98792.28;;;11.20;65.11
22964;BME280;11648;49.306;6.934;2023-12-20T09:32:08;98797.44;;;11.35;64.89
22964;BME280;11648;49.306;6.934;2023-12-20T09:34:35;98800.06;;;11.33;64.87
22964;BME280;11648;49.306;6.934;2023-12-20T09:37:04;98805.50;;;11.11;65.28
22964;BME280;11648;49.306;6.934;2023-12-20T09:39:32;98810.59;;;11.33;64.80
22964;BME280;11648;49.306;6.934;2023-12-20T09:42:03;98808.06;;;11.23;64.97
22964;BME280;11648;49.306;6.934;2023-12-20T09:44:31;98808.16;;;11.12;64.91
22964;BME280;11648;49.306;6.934;2023-12-20T09:47:02;98826.34;;;11.44;64.52
22964;BME280;11648;49.306;6.934;2023-12-20T09:49:30;98826.75;;;10.91;65.87
22964;BME280;11648;49.306;6.934;2023-12-20T09:51:57;98828.38;;;11.09;65.56
22964;BME280;11648;49.306;6.934;2023-12-20T09:54:28;98829.41;;;10.88;65.97
22964;BME280;11648;49.306;6.934;2023-12-20T09:56:55;98831.13;;;10.90;66.20
22964;BME280;11648;49.306;6.934;2023-12-20T09:59:22;98816.22;;;10.86;66.09
22964;BME280;11648;49.306;6.934;2023-12-20T10:01:50;98804.69;;;11.04;65.92
22964;BME280;11648;49.306;6.934;2023-12-20T10:04:21;98816.22;;;10.85;66.29
22964;BME280;11648;49.306;6.934;2023-12-20T10:06:56;98811.56;;;11.22;65.51
22964;BME280;11648;49.306;6.934;2023-12-20T10:09:23;98795.03;;;11.03;65.62
22964;BME280;11648;49.306;6.934;2023-12-20T10:11:54;98796.56;;;11.33;65.28
22964;BME280;11648;49.306;6.934;2023-12-20T10:14:21;98791.38;;;11.22;65.35
22964;BME280;11648;49.306;6.934;2023-12-20T10:16:50;98794.53;;;11.62;64.35
22964;BME280;11648;49.306;6.934;2023-12-20T10:19:17;98795.53;;;11.48;64.19
22964;BME280;11648;49.306;6.934;2023-12-20T10:21:47;98787.50;;;11.61;64.02
22964;BME280;11648;49.306;6.934;2023-12-20T10:24:17;98790.03;;;11.78;63.77
22964;BME280;11648;49.306;6.934;2023-12-20T10:26:44;98801.59;;;11.59;64.00
22964;BME280;11648;49.306;6.934;2023-12-20T10:29:11;98800.34;;;11.99;63.16
22964;BME280;11648;49.306;6.934;2023-12-20T10:31:38;98782.44;;;12.22;62.48
22964;BME280;11648;49.306;6.934;2023-12-20T10:34:05;98779.22;;;11.98;62.67
22964;BME280;11648;49.306;6.934;2023-12-20T10:36:33;98764.78;;;12.27;62.04
22964;BME280;11648;49.306;6.934;2023-12-20T10:39:00;98769.34;;;12.15;62.21
22964;BME280;11648;49.306;6.934;2023-12-20T10:41:31;98760.59;;;12.13;62.29
22964;BME280;11648;49.306;6.934;2023-12-20T10:44:00;98758.13;;;11.99;62.98
22964;BME280;11648;49.306;6.934;2023-12-20T10:46:28;98764.41;;;11.87;62.94
22964;BME280;11648;49.306;6.934;2023-12-20T10:48:57;98757.34;;;11.89;63.10
22964;BME280;11648;49.306;6.934;2023-12-20T10:51:24;98763.59;;;11.79;63.39
22964;BME280;11648;49.306;6.934;2023-12-20T10:53:56;98760.97;;;11.79;63.17
22964;BME280;11648;49.306;6.934;2023-12-20T10:56:23;98762.81;;;11.73;63.82
22964;BME280;11648;49.306;6.934;2023-12-20T10:58:50;98759.28;;;11.74;63.37
22964;BME280;11648;49.306;6.934;2023-12-20T11:01:18;98756.53;;;11.84;63.38
22964;BME280;11648;49.306;6.934;2023-12-20T11:06:29;98740.97;;;11.56;63.57
22964;BME280;11648;49.306;6.934;2023-12-20T11:12:25;98740.66;;;11.86;63.06
22964;BME280;11648;49.306;6.934;2023-12-20T11:14:56;98742.53;;;11.76;62.77
22964;BME280;11648;49.306;6.934;2023-12-20T11:17:24;98741.75;;;11.65;62.87
22964;BME280;11648;49.306;6.934;2023-12-20T11:22:25;98736.31;;;11.83;62.28
22964;BME280;11648;49.306;6.934;2023-12-20T11:24:53;98742.41;;;11.88;61.87
22964;BME280;11648;49.306;6.934;2023-12-20T11:27:20;98745.63;;;11.28;63.30
22964;BME280;11648;49.306;6.934;2023-12-20T11:29:57;98738.53;;;11.36;63.08
22964;BME280;11648;49.306;6.934;2023-12-20T11:37:36;98730.06;;;11.89;61.24
22964;BME280;11648;49.306;6.934;2023-12-20T11:40:08;98728.38;;;11.85;61.17
22964;BME280;11648;49.306;6.934;2023-12-20T11:42:38;98729.31;;;11.79;61.66
22964;BME280;11648;49.306;6.934;2023-12-20T11:45:10;98725.78;;;11.80;61.23
22964;BME280;11648;49.306;6.934;2023-12-20T11:47:37;98731.94;;;11.79;61.19
22964;BME280;11648;49.306;6.934;2023-12-20T11:50:05;98728.34;;;11.88;61.01
22964;BME280;11648;49.306;6.934;2023-12-20T11:52:32;98735.22;;;12.01;60.82
22964;BME280;11648;49.306;6.934;2023-12-20T11:54:59;98725.66;;;11.91;61.05
22964;BME280;11648;49.306;6.934;2023-12-20T11:57:26;98720.44;;;11.86;61.04
22964;BME280;11648;49.306;6.934;2023-12-20T11:59:54;98717.06;;;11.77;61.60
22964;BME280;11648;49.306;6.934;2023-12-20T12:02:21;98717.63;;;12.02;61.00
22964;BME280;11648;49.306;6.934;2023-12-20T12:04:48;98730.28;;;11.69;61.62
22964;BME280;11648;49.306;6.934;2023-12-20T12:07:16;98725.72;;;11.88;61.71
22964;BME280;11648;49.306;6.934;2023-12-20T12:09:43;98727.56;;;11.81;61.96
22964;BME280;11648;49.306;6.934;2023-12-20T12:12:11;98731.13;;;11.77;62.29
22964;BME280;11648;49.306;6.934;2023-12-20T12:14:40;98731.16;;;11.74;62.35
22964;BME280;11648;49.306;6.934;2023-12-20T12:17:11;98733.44;;;12.02;61.78
22964;BME280;11648;49.306;6.934;2023-12-20T12:19:39;98733.91;;;11.59;62.59
22964;BME280;11648;49.306;6.934;2023-12-20T12:22:08;98746.34;;;11.48;63.13
22964;BME280;11648;49.306;6.934;2023-12-20T12:24:46;98733.78;;;11.73;62.32
22964;BME280;11648;49.306;6.934;2023-12-20T12:27:13;98740.94;;;11.57;62.94
22964;BME280;11648;49.306;6.934;2023-12-20T12:29:40;98740.06;;;11.58;62.92
22964;BME280;11648;49.306;6.934;2023-12-20T12:32:08;98740.84;;;11.68;62.65
22964;BME280;11648;49.306;6.934;2023-12-20T12:34:36;98726.72;;;11.78;62.62
22964;BME280;11648;49.306;6.934;2023-12-20T12:37:04;98735.50;;;11.75;62.59
22964;BME280;11648;49.306;6.934;2023-12-20T12:39:31;98732.22;;;11.52;63.39
22964;BME280;11648;49.306;6.934;2023-12-20T12:41:58;98721.84;;;11.37;63.98
22964;BME280;11648;49.306;6.934;2023-12-20T12:44:25;98727.84;;;11.53;63.40
22964;BME280;11648;49.306;6.934;2023-12-20T12:46:53;98720.78;;;11.53;63.39
22964;BME280;11648;49.306;6.934;2023-12-20T12:49:20;98719.75;;;11.71;63.23
22964;BME280;11648;49.306;6.934;2023-12-20T12:51:48;98723.41;;;11.55;63.34
22964;BME280;11648;49.306;6.934;2023-12-20T12:54:16;98709.13;;;11.75;62.70
22964;BME280;11648;49.306;6.934;2023-12-20T12:56:44;98703.88;;;11.77;62.86
22964;BME280;11648;49.306;6.934;2023-12-20T12:59:11;98700.53;;;11.58;63.24
22964;BME280;11648;49.306;6.934;2023-12-20T13:01:38;98702.53;;;11.32;63.89
22964;BME280;11648;49.306;6.934;2023-12-20T13:04:06;98693.88;;;11.22;64.68
22964;BME280;11648;49.306;6.934;2023-12-20T13:06:37;98682.84;;;11.71;63.53
22964;BME280;11648;49.306;6.934;2023-12-20T13:09:04;98666.66;;;11.97;62.46
22964;BME280;11648;49.306;6.934;2023-12-20T13:11:32;98670.03;;;12.08;62.78
22964;BME280;11648;49.306;6.934;2023-12-20T13:13:59;98665.94;;;11.85;63.27
22964;BME280;11648;49.306;6.934;2023-12-20T13:16:26;98655.03;;;12.11;62.61